Terminal Aerodrome Forecast
Issued by NWS

Current Version | Previous Version | Graphics & Text | Print | Product List | Glossary Off
Versions: 1 2 3 4 5 6 7 8 9 10 11 12 13 14 15 16 17 18 19 20 21 22 23 24 25 26 27 28 29 30 31 32 33 34 35 36 37 38 39 40 41

000
FTUS41 KRNK 011140
TAFLWB
TAF
KLWB 011140Z 0112/0212 02004KT P6SM SCT045 OVC090
      TEMPO 0113/0116 P6SM -SNPL OVC045
     FM011800 11004KT P6SM SCT040 OVC100
     FM012300 17006KT P6SM -RA OVC035
     FM020300 19004KT 5SM -RA BR OVC015
     FM020600 22003KT 1 1/2SM RA BR OVC004=

USA.gov is the U.S. government's official web portal to all federal, state and local government web resources and services.